Kruså-Padborg Airfield

EKPB · 南丹麦大区, 丹麦

罗盘
风向 的 风向 120° Kruså-Padborg Airfield 4/22
风: 9 kt, 3 beaufort

2 kt

9 kt
改变
0 ft 1.000 2.000 3.000 4.000 5.000
N/A
METAR ETGG 020720Z AUTO 12009KT 2300 // ////// 06/06 Q1003 ///

METAR Kruså-Padborg Airfield - EKPB

Kruså-Padborg Airfield是,丹麦中的小机场。 该机场位于纬度54,87030和经度9,27901。 该机场有一条跑道: 4/22. 本场的ICAO机场代码为EKPB。 机场在Bremen FIR中。

该航空气象观测是针对Gluecksburg / Meierwik在2024年3月2日 08:20, 当地时间进行的。

机场观察

风向为120°,速度为9 kt。

可见度为2,3 km。

有。 没有观察到天花板。

温度为6 °C,阵风为1 °C。 露点为6 °C,相对湿度为100%。 海平面上的气压为1003 hPa (QNH)。

白天

今天,太阳从07:08升起,在18:01降落。 这适用于Kruså-Padborg Airfield,世界夏令时可能有所不同。 当地时间与世界标准时间之间的时差为+1 小时。 当前,没有夏令时有效。

公司介绍

我们没有关于这个机场的公司信息。

体会

到Vliegles.nl去找飞行课程,跳伞和其他飞行体验。 浏览页面,了解Kruså-Padborg Airfield附近所有可用的活动。 你也可以使用搜索功能来寻找你所在地附近的特定飞行课程、跳伞或其他飞行体验。

跑道

Id 标题 侧风 逆风 侧风 %
4/22 044°-224° 9 kt 2 kt 97 %

逆风成分最大的方向会被突出显示,并用于横风计算。 这并不一定意味着这个方向在使用。

乌云

0 ft

温度 & 天气

温度 6 °C
露点 6 °C
相对湿度 100%
风寒 1 °C
Kp-index 1 (0-9)

白天

日出
07:07
中午
12:34
日落
18:00 (8:53)

小工具

你想在你的网站上有一个关于Kruså-Padborg Airfield的当前航空天气(METAR)的小部件吗?

显示HTML代码
?>